sensor_id;sensor_type;location;lat;lon;timestamp;temperature;humidity
13344;DHT22;6741;48.964;9.406;2022-12-18T00:00:59;-9.50;99.90
13344;DHT22;6741;48.964;9.406;2022-12-18T00:03:26;-9.40;99.90
13344;DHT22;6741;48.964;9.406;2022-12-18T00:05:53;-9.40;99.90
13344;DHT22;6741;48.964;9.406;2022-12-18T00:08:20;-9.30;99.90
13344;DHT22;6741;48.964;9.406;2022-12-18T00:10:47;-9.30;99.90
13344;DHT22;6741;48.964;9.406;2022-12-18T00:13:15;-9.30;99.90
13344;DHT22;6741;48.964;9.406;2022-12-18T00:15:42;-9.30;99.90
13344;DHT22;6741;48.964;9.406;2022-12-18T00:18:09;-9.50;99.90
13344;DHT22;6741;48.964;9.406;2022-12-18T00:20:37;-9.40;99.90
13344;DHT22;6741;48.964;9.406;2022-12-18T00:23:05;-9.50;99.90
13344;DHT22;6741;48.964;9.406;2022-12-18T00:25:33;-9.50;99.90
13344;DHT22;6741;48.964;9.406;2022-12-18T00:28:00;-9.60;99.90
13344;DHT22;6741;48.964;9.406;2022-12-18T00:30:29;-9.50;99.90
13344;DHT22;6741;48.964;9.406;2022-12-18T00:32:57;-9.50;99.90
13344;DHT22;6741;48.964;9.406;2022-12-18T00:35:24;-9.40;99.90
13344;DHT22;6741;48.964;9.406;2022-12-18T00:37:51;-9.50;99.90
13344;DHT22;6741;48.964;9.406;2022-12-18T00:40:18;-9.40;99.90
13344;DHT22;6741;48.964;9.406;2022-12-18T00:42:44;-9.50;99.90
13344;DHT22;6741;48.964;9.406;2022-12-18T00:45:25;-9.50;99.90
13344;DHT22;6741;48.964;9.406;2022-12-18T00:47:54;-9.60;99.90
13344;DHT22;6741;48.964;9.406;2022-12-18T00:50:22;-9.50;99.90
13344;DHT22;6741;48.964;9.406;2022-12-18T00:52:49;-9.30;99.90
13344;DHT22;6741;48.964;9.406;2022-12-18T00:55:16;-9.40;99.90
13344;DHT22;6741;48.964;9.406;2022-12-18T00:57:43;-9.40;99.90
13344;DHT22;6741;48.964;9.406;2022-12-18T01:00:12;-9.60;99.90
13344;DHT22;6741;48.964;9.406;2022-12-18T01:02:40;-9.60;99.90
13344;DHT22;6741;48.964;9.406;2022-12-18T01:05:09;-9.60;99.90
13344;DHT22;6741;48.964;9.406;2022-12-18T01:07:37;-9.50;99.90
13344;DHT22;6741;48.964;9.406;2022-12-18T01:10:05;-9.40;99.90
13344;DHT22;6741;48.964;9.406;2022-12-18T01:12:33;-9.30;99.90
13344;DHT22;6741;48.964;9.406;2022-12-18T01:15:00;-9.30;99.90
13344;DHT22;6741;48.964;9.406;2022-12-18T01:17:27;-9.20;99.90
13344;DHT22;6741;48.964;9.406;2022-12-18T01:19:54;-9.20;99.90
13344;DHT22;6741;48.964;9.406;2022-12-18T01:22:22;-9.30;99.90
13344;DHT22;6741;48.964;9.406;2022-12-18T01:24:49;-9.30;99.90
13344;DHT22;6741;48.964;9.406;2022-12-18T01:27:16;-9.30;99.90
13344;DHT22;6741;48.964;9.406;2022-12-18T01:29:43;-9.30;99.90
13344;DHT22;6741;48.964;9.406;2022-12-18T01:32:10;-9.30;99.90
13344;DHT22;6741;48.964;9.406;2022-12-18T01:34:37;-9.30;99.90
13344;DHT22;6741;48.964;9.406;2022-12-18T01:37:05;-9.40;99.90
13344;DHT22;6741;48.964;9.406;2022-12-18T01:39:33;-9.50;99.90
13344;DHT22;6741;48.964;9.406;2022-12-18T01:42:02;-9.60;99.90
13344;DHT22;6741;48.964;9.406;2022-12-18T01:45:06;-9.70;99.90
13344;DHT22;6741;48.964;9.406;2022-12-18T01:47:39;-9.70;99.90
13344;DHT22;6741;48.964;9.406;2022-12-18T01:50:10;-9.70;99.90
13344;DHT22;6741;48.964;9.406;2022-12-18T01:52:38;-9.70;99.90
13344;DHT22;6741;48.964;9.406;2022-12-18T01:55:13;-9.70;99.90
13344;DHT22;6741;48.964;9.406;2022-12-18T01:57:41;-9.60;99.90
13344;DHT22;6741;48.964;9.406;2022-12-18T02:00:12;-9.60;99.90
13344;DHT22;6741;48.964;9.406;2022-12-18T02:02:41;-9.60;99.90
13344;DHT22;6741;48.964;9.406;2022-12-18T02:05:09;-9.70;99.90
13344;DHT22;6741;48.964;9.406;2022-12-18T02:07:43;-9.70;99.90
13344;DHT22;6741;48.964;9.406;2022-12-18T02:10:17;-9.70;99.90
13344;DHT22;6741;48.964;9.406;2022-12-18T02:12:51;-9.80;99.90
13344;DHT22;6741;48.964;9.406;2022-12-18T02:15:24;-10.00;99.90
13344;DHT22;6741;48.964;9.406;2022-12-18T02:17:56;-10.00;99.90
13344;DHT22;6741;48.964;9.406;2022-12-18T02:20:28;-9.70;99.90
13344;DHT22;6741;48.964;9.406;2022-12-18T02:23:06;-9.50;99.90
13344;DHT22;6741;48.964;9.406;2022-12-18T02:28:38;-9.50;99.90
13344;DHT22;6741;48.964;9.406;2022-12-18T02:31:11;-9.50;99.90
13344;DHT22;6741;48.964;9.406;2022-12-18T02:33:38;-9.50;99.90
13344;DHT22;6741;48.964;9.406;2022-12-18T02:36:06;-9.40;99.90
13344;DHT22;6741;48.964;9.406;2022-12-18T02:38:35;-9.40;99.90
13344;DHT22;6741;48.964;9.406;2022-12-18T02:41:03;-9.50;99.90
13344;DHT22;6741;48.964;9.406;2022-12-18T02:43:30;-9.40;99.90
13344;DHT22;6741;48.964;9.406;2022-12-18T02:46:00;-9.40;99.90
13344;DHT22;6741;48.964;9.406;2022-12-18T02:48:30;-9.30;99.90
13344;DHT22;6741;48.964;9.406;2022-12-18T02:51:03;-9.30;99.90
13344;DHT22;6741;48.964;9.406;2022-12-18T02:53:36;-9.40;99.90
13344;DHT22;6741;48.964;9.406;2022-12-18T02:56:09;-9.40;99.90
13344;DHT22;6741;48.964;9.406;2022-12-18T02:58:46;-9.40;99.90
13344;DHT22;6741;48.964;9.406;2022-12-18T03:01:21;-9.30;99.90
13344;DHT22;6741;48.964;9.406;2022-12-18T03:03:52;-9.30;99.90
13344;DHT22;6741;48.964;9.406;2022-12-18T03:06:25;-9.30;99.90
13344;DHT22;6741;48.964;9.406;2022-12-18T03:08:57;-9.40;99.90
13344;DHT22;6741;48.964;9.406;2022-12-18T03:11:25;-9.40;99.90
13344;DHT22;6741;48.964;9.406;2022-12-18T03:14:08;-9.40;99.90
13344;DHT22;6741;48.964;9.406;2022-12-18T03:16:37;-9.50;99.90
13344;DHT22;6741;48.964;9.406;2022-12-18T03:19:10;-9.60;99.90
13344;DHT22;6741;48.964;9.406;2022-12-18T03:21:43;-9.60;99.90
13344;DHT22;6741;48.964;9.406;2022-12-18T03:24:11;-9.60;99.90
13344;DHT22;6741;48.964;9.406;2022-12-18T03:26:42;-9.60;99.90
13344;DHT22;6741;48.964;9.406;2022-12-18T03:29:15;-9.60;99.90
13344;DHT22;6741;48.964;9.406;2022-12-18T03:31:48;-9.60;99.90
13344;DHT22;6741;48.964;9.406;2022-12-18T03:34:19;-9.60;99.90
13344;DHT22;6741;48.964;9.406;2022-12-18T03:36:48;-9.60;99.90
13344;DHT22;6741;48.964;9.406;2022-12-18T03:39:15;-9.60;99.90
13344;DHT22;6741;48.964;9.406;2022-12-18T03:41:44;-9.50;99.90
13344;DHT22;6741;48.964;9.406;2022-12-18T03:44:20;-9.50;99.90
13344;DHT22;6741;48.964;9.406;2022-12-18T03:46:54;-9.60;99.90
13344;DHT22;6741;48.964;9.406;2022-12-18T03:49:28;-9.70;99.90
13344;DHT22;6741;48.964;9.406;2022-12-18T03:52:02;-9.60;99.90
13344;DHT22;6741;48.964;9.406;2022-12-18T03:54:31;-9.60;99.90
13344;DHT22;6741;48.964;9.406;2022-12-18T03:57:02;-9.60;99.90
13344;DHT22;6741;48.964;9.406;2022-12-18T03:59:31;-9.70;99.90
13344;DHT22;6741;48.964;9.406;2022-12-18T04:02:01;-9.70;99.90
13344;DHT22;6741;48.964;9.406;2022-12-18T04:04:31;-9.80;99.90
13344;DHT22;6741;48.964;9.406;2022-12-18T04:06:58;-9.90;99.90
13344;DHT22;6741;48.964;9.406;2022-12-18T04:09:26;-10.00;99.90
13344;DHT22;6741;48.964;9.406;2022-12-18T04:11:54;-10.00;99.90
13344;DHT22;6741;48.964;9.406;2022-12-18T04:14:21;-9.90;99.90
13344;DHT22;6741;48.964;9.406;2022-12-18T04:16:49;-9.90;99.90
13344;DHT22;6741;48.964;9.406;2022-12-18T04:19:17;-10.00;99.90
13344;DHT22;6741;48.964;9.406;2022-12-18T04:21:44;-10.00;99.90
13344;DHT22;6741;48.964;9.406;2022-12-18T04:24:11;-10.00;99.90
13344;DHT22;6741;48.964;9.406;2022-12-18T04:26:38;-10.00;99.90
13344;DHT22;6741;48.964;9.406;2022-12-18T04:29:05;-10.00;99.90
13344;DHT22;6741;48.964;9.406;2022-12-18T04:31:32;-10.00;99.90
13344;DHT22;6741;48.964;9.406;2022-12-18T04:33:59;-10.00;99.90
13344;DHT22;6741;48.964;9.406;2022-12-18T04:36:27;-10.00;99.90
13344;DHT22;6741;48.964;9.406;2022-12-18T04:38:54;-10.00;99.90
13344;DHT22;6741;48.964;9.406;2022-12-18T04:41:21;-10.00;99.90
13344;DHT22;6741;48.964;9.406;2022-12-18T04:43:48;-10.00;99.90
13344;DHT22;6741;48.964;9.406;2022-12-18T04:46:15;-10.00;99.90
13344;DHT22;6741;48.964;9.406;2022-12-18T04:48:45;-10.00;99.90
13344;DHT22;6741;48.964;9.406;2022-12-18T04:51:12;-10.00;99.90
13344;DHT22;6741;48.964;9.406;2022-12-18T04:53:40;-9.90;99.90
13344;DHT22;6741;48.964;9.406;2022-12-18T04:56:10;-9.90;99.90
13344;DHT22;6741;48.964;9.406;2022-12-18T04:58:38;-10.00;99.90
13344;DHT22;6741;48.964;9.406;2022-12-18T05:01:06;-10.00;99.90
13344;DHT22;6741;48.964;9.406;2022-12-18T05:03:34;-10.00;99.90
13344;DHT22;6741;48.964;9.406;2022-12-18T05:06:02;-10.00;99.90
13344;DHT22;6741;48.964;9.406;2022-12-18T05:08:29;-10.10;99.90
13344;DHT22;6741;48.964;9.406;2022-12-18T05:11:02;-10.10;99.90
13344;DHT22;6741;48.964;9.406;2022-12-18T05:13:30;-10.00;99.90
13344;DHT22;6741;48.964;9.406;2022-12-18T05:15:57;-9.90;99.90
13344;DHT22;6741;48.964;9.406;2022-12-18T05:18:24;-9.90;99.90
13344;DHT22;6741;48.964;9.406;2022-12-18T05:20:52;-9.90;99.90
13344;DHT22;6741;48.964;9.406;2022-12-18T05:23:21;-9.80;99.90
13344;DHT22;6741;48.964;9.406;2022-12-18T05:25:51;-9.80;99.90
13344;DHT22;6741;48.964;9.406;2022-12-18T05:28:20;-9.80;99.90
13344;DHT22;6741;48.964;9.406;2022-12-18T05:30:51;-9.70;99.90
13344;DHT22;6741;48.964;9.406;2022-12-18T05:33:18;-9.60;99.90
13344;DHT22;6741;48.964;9.406;2022-12-18T05:35:50;-9.50;99.90
13344;DHT22;6741;48.964;9.406;2022-12-18T05:38:18;-9.50;99.90
13344;DHT22;6741;48.964;9.406;2022-12-18T05:40:46;-9.50;99.90
13344;DHT22;6741;48.964;9.406;2022-12-18T05:43:14;-9.50;99.90
13344;DHT22;6741;48.964;9.406;2022-12-18T05:45:42;-9.50;99.90
13344;DHT22;6741;48.964;9.406;2022-12-18T05:48:10;-9.50;99.90
13344;DHT22;6741;48.964;9.406;2022-12-18T05:50:37;-9.50;99.90
13344;DHT22;6741;48.964;9.406;2022-12-18T05:53:04;-9.50;99.90
13344;DHT22;6741;48.964;9.406;2022-12-18T05:55:33;-9.60;99.90
13344;DHT22;6741;48.964;9.406;2022-12-18T05:58:00;-9.50;99.90
13344;DHT22;6741;48.964;9.406;2022-12-18T06:00:28;-9.50;99.90
13344;DHT22;6741;48.964;9.406;2022-12-18T06:02:57;-9.50;99.90
13344;DHT22;6741;48.964;9.406;2022-12-18T06:05:27;-9.50;99.90
13344;DHT22;6741;48.964;9.406;2022-12-18T06:07:54;-9.50;99.90
13344;DHT22;6741;48.964;9.406;2022-12-18T06:10:22;-9.60;99.90
13344;DHT22;6741;48.964;9.406;2022-12-18T06:12:51;-9.60;99.90
13344;DHT22;6741;48.964;9.406;2022-12-18T06:15:18;-9.70;99.90
13344;DHT22;6741;48.964;9.406;2022-12-18T06:17:46;-9.70;99.90
13344;DHT22;6741;48.964;9.406;2022-12-18T06:20:14;-9.70;99.90
13344;DHT22;6741;48.964;9.406;2022-12-18T06:22:42;-9.70;99.90
13344;DHT22;6741;48.964;9.406;2022-12-18T06:25:09;-9.70;99.90
13344;DHT22;6741;48.964;9.406;2022-12-18T06:27:37;-9.70;99.90
13344;DHT22;6741;48.964;9.406;2022-12-18T06:30:05;-9.70;99.90
13344;DHT22;6741;48.964;9.406;2022-12-18T06:32:33;-9.60;99.90
13344;DHT22;6741;48.964;9.406;2022-12-18T06:35:00;-9.60;99.90
13344;DHT22;6741;48.964;9.406;2022-12-18T06:37:28;-9.60;99.90
13344;DHT22;6741;48.964;9.406;2022-12-18T06:39:57;-9.60;99.90
13344;DHT22;6741;48.964;9.406;2022-12-18T06:42:28;-9.60;99.90
13344;DHT22;6741;48.964;9.406;2022-12-18T06:44:55;-9.50;99.90
13344;DHT22;6741;48.964;9.406;2022-12-18T06:47:22;-9.60;99.90
13344;DHT22;6741;48.964;9.406;2022-12-18T06:49:49;-9.60;99.90
13344;DHT22;6741;48.964;9.406;2022-12-18T06:52:17;-9.60;99.90
13344;DHT22;6741;48.964;9.406;2022-12-18T06:54:45;-9.50;99.90
13344;DHT22;6741;48.964;9.406;2022-12-18T06:57:12;-9.60;99.90
13344;DHT22;6741;48.964;9.406;2022-12-18T06:59:39;-9.60;99.90
13344;DHT22;6741;48.964;9.406;2022-12-18T07:02:06;-9.60;99.90
13344;DHT22;6741;48.964;9.406;2022-12-18T07:04:33;-9.60;99.90
13344;DHT22;6741;48.964;9.406;2022-12-18T07:07:00;-9.60;99.90
13344;DHT22;6741;48.964;9.406;2022-12-18T07:09:27;-9.50;99.90
13344;DHT22;6741;48.964;9.406;2022-12-18T07:11:55;-9.50;99.90
13344;DHT22;6741;48.964;9.406;2022-12-18T07:14:22;-9.40;99.90
13344;DHT22;6741;48.964;9.406;2022-12-18T07:16:49;-9.40;99.90
13344;DHT22;6741;48.964;9.406;2022-12-18T07:19:16;-9.40;99.90
13344;DHT22;6741;48.964;9.406;2022-12-18T07:21:43;-9.40;99.90
13344;DHT22;6741;48.964;9.406;2022-12-18T07:24:10;-9.20;99.90
13344;DHT22;6741;48.964;9.406;2022-12-18T07:26:37;-9.30;99.90
13344;DHT22;6741;48.964;9.406;2022-12-18T07:29:05;-9.40;99.90
13344;DHT22;6741;48.964;9.406;2022-12-18T07:31:32;-9.40;99.90
13344;DHT22;6741;48.964;9.406;2022-12-18T07:33:59;-9.40;99.90
13344;DHT22;6741;48.964;9.406;2022-12-18T07:36:26;-9.40;99.90
13344;DHT22;6741;48.964;9.406;2022-12-18T07:38:54;-9.30;99.90
13344;DHT22;6741;48.964;9.406;2022-12-18T07:41:22;-9.30;99.90
13344;DHT22;6741;48.964;9.406;2022-12-18T07:43:49;-9.20;99.90
13344;DHT22;6741;48.964;9.406;2022-12-18T07:46:17;-9.10;99.90
13344;DHT22;6741;48.964;9.406;2022-12-18T07:48:44;-9.10;99.90
13344;DHT22;6741;48.964;9.406;2022-12-18T07:51:12;-9.00;99.90
13344;DHT22;6741;48.964;9.406;2022-12-18T07:53:39;-9.00;99.90
13344;DHT22;6741;48.964;9.406;2022-12-18T07:56:08;-8.90;99.90
13344;DHT22;6741;48.964;9.406;2022-12-18T07:58:36;-8.90;99.90
13344;DHT22;6741;48.964;9.406;2022-12-18T08:01:04;-8.80;99.90
13344;DHT22;6741;48.964;9.406;2022-12-18T08:03:33;-8.70;99.90
13344;DHT22;6741;48.964;9.406;2022-12-18T08:06:00;-8.70;99.90
13344;DHT22;6741;48.964;9.406;2022-12-18T08:08:27;-8.70;99.90
13344;DHT22;6741;48.964;9.406;2022-12-18T08:10:55;-8.70;99.90
13344;DHT22;6741;48.964;9.406;2022-12-18T08:13:22;-8.50;99.90
13344;DHT22;6741;48.964;9.406;2022-12-18T08:15:56;-8.50;99.90
13344;DHT22;6741;48.964;9.406;2022-12-18T08:18:23;-8.40;99.90
13344;DHT22;6741;48.964;9.406;2022-12-18T08:20:52;-8.30;99.90
13344;DHT22;6741;48.964;9.406;2022-12-18T08:23:19;-8.20;99.90
13344;DHT22;6741;48.964;9.406;2022-12-18T08:25:46;-8.10;99.90
13344;DHT22;6741;48.964;9.406;2022-12-18T08:28:16;-8.00;99.90
13344;DHT22;6741;48.964;9.406;2022-12-18T08:30:43;-8.00;99.90
13344;DHT22;6741;48.964;9.406;2022-12-18T08:33:10;-8.00;99.90
13344;DHT22;6741;48.964;9.406;2022-12-18T08:35:37;-7.80;99.90
13344;DHT22;6741;48.964;9.406;2022-12-18T08:38:06;-7.80;99.90
13344;DHT22;6741;48.964;9.406;2022-12-18T08:40:32;-7.70;99.90
13344;DHT22;6741;48.964;9.406;2022-12-18T08:43:00;-7.70;99.90
13344;DHT22;6741;48.964;9.406;2022-12-18T08:45:44;-7.60;99.90
13344;DHT22;6741;48.964;9.406;2022-12-18T08:48:14;-7.50;99.90
13344;DHT22;6741;48.964;9.406;2022-12-18T08:50:42;-7.40;99.90
13344;DHT22;6741;48.964;9.406;2022-12-18T08:53:11;-7.30;99.90
13344;DHT22;6741;48.964;9.406;2022-12-18T08:55:38;-7.30;99.90
13344;DHT22;6741;48.964;9.406;2022-12-18T08:58:05;-7.20;99.90
13344;DHT22;6741;48.964;9.406;2022-12-18T09:00:32;-7.10;99.90
13344;DHT22;6741;48.964;9.406;2022-12-18T09:02:59;-7.10;99.90
13344;DHT22;6741;48.964;9.406;2022-12-18T09:05:27;-7.00;99.90
13344;DHT22;6741;48.964;9.406;2022-12-18T09:07:54;-6.90;99.90
13344;DHT22;6741;48.964;9.406;2022-12-18T09:10:23;-6.80;99.90
13344;DHT22;6741;48.964;9.406;2022-12-18T09:12:50;-6.80;99.90
13344;DHT22;6741;48.964;9.406;2022-12-18T09:15:17;-6.60;99.90
13344;DHT22;6741;48.964;9.406;2022-12-18T09:17:44;-6.50;99.90
13344;DHT22;6741;48.964;9.406;2022-12-18T09:20:11;-6.50;99.90
13344;DHT22;6741;48.964;9.406;2022-12-18T09:22:37;-6.40;99.90
13344;DHT22;6741;48.964;9.406;2022-12-18T09:25:05;-6.50;99.90
13344;DHT22;6741;48.964;9.406;2022-12-18T09:27:37;-6.50;99.90
13344;DHT22;6741;48.964;9.406;2022-12-18T09:30:06;-6.30;99.90
13344;DHT22;6741;48.964;9.406;2022-12-18T09:32:34;-6.20;99.90
13344;DHT22;6741;48.964;9.406;2022-12-18T09:35:02;-6.00;99.90
13344;DHT22;6741;48.964;9.406;2022-12-18T09:37:29;-6.10;99.90
13344;DHT22;6741;48.964;9.406;2022-12-18T09:39:59;-6.10;99.90
13344;DHT22;6741;48.964;9.406;2022-12-18T09:42:27;-6.00;99.90
13344;DHT22;6741;48.964;9.406;2022-12-18T09:44:55;-5.80;99.90
13344;DHT22;6741;48.964;9.406;2022-12-18T09:47:26;-5.20;99.90
13344;DHT22;6741;48.964;9.406;2022-12-18T09:49:58;-5.40;99.90
13344;DHT22;6741;48.964;9.406;2022-12-18T09:52:29;-5.40;99.90
13344;DHT22;6741;48.964;9.406;2022-12-18T09:55:00;-5.40;99.90
13344;DHT22;6741;48.964;9.406;2022-12-18T09:57:29;-5.30;99.90
13344;DHT22;6741;48.964;9.406;2022-12-18T10:00:04;-5.20;99.90
13344;DHT22;6741;48.964;9.406;2022-12-18T10:02:32;-5.10;99.90
13344;DHT22;6741;48.964;9.406;2022-12-18T10:05:05;-5.00;99.90
13344;DHT22;6741;48.964;9.406;2022-12-18T10:07:42;-4.90;99.90
13344;DHT22;6741;48.964;9.406;2022-12-18T10:10:18;-4.70;99.90
13344;DHT22;6741;48.964;9.406;2022-12-18T10:12:53;-4.60;99.90
13344;DHT22;6741;48.964;9.406;2022-12-18T10:15:27;-4.50;99.90
13344;DHT22;6741;48.964;9.406;2022-12-18T10:18:02;-4.40;99.90
13344;DHT22;6741;48.964;9.406;2022-12-18T10:20:40;-4.30;99.90
13344;DHT22;6741;48.964;9.406;2022-12-18T10:23:21;-4.10;99.90
13344;DHT22;6741;48.964;9.406;2022-12-18T10:26:04;-3.80;99.90
13344;DHT22;6741;48.964;9.406;2022-12-18T10:28:34;-3.90;99.90
13344;DHT22;6741;48.964;9.406;2022-12-18T10:31:05;-3.60;99.90
13344;DHT22;6741;48.964;9.406;2022-12-18T10:33:33;-3.60;99.90
13344;DHT22;6741;48.964;9.406;2022-12-18T10:36:00;-3.20;99.90
13344;DHT22;6741;48.964;9.406;2022-12-18T10:38:30;-2.60;99.90
13344;DHT22;6741;48.964;9.406;2022-12-18T10:40:59;-1.50;99.90
13344;DHT22;6741;48.964;9.406;2022-12-18T10:43:27;-0.80;99.90
13344;DHT22;6741;48.964;9.406;2022-12-18T10:46:00;0.40;99.90
13344;DHT22;6741;48.964;9.406;2022-12-18T10:48:31;0.90;99.90
13344;DHT22;6741;48.964;9.406;2022-12-18T10:50:58;1.80;99.90
13344;DHT22;6741;48.964;9.406;2022-12-18T10:53:28;2.90;99.90
13344;DHT22;6741;48.964;9.406;2022-12-18T10:55:57;2.90;99.90
13344;DHT22;6741;48.964;9.406;2022-12-18T10:58:27;3.10;99.90
13344;DHT22;6741;48.964;9.406;2022-12-18T11:01:06;2.90;99.90
13344;DHT22;6741;48.964;9.406;2022-12-18T11:03:36;2.00;99.90
13344;DHT22;6741;48.964;9.406;2022-12-18T11:06:07;1.30;99.90
13344;DHT22;6741;48.964;9.406;2022-12-18T11:08:34;1.30;99.90
13344;DHT22;6741;48.964;9.406;2022-12-18T11:11:02;1.20;99.90
13344;DHT22;6741;48.964;9.406;2022-12-18T11:13:30;1.50;99.90
13344;DHT22;6741;48.964;9.406;2022-12-18T11:15:58;2.50;99.90
13344;DHT22;6741;48.964;9.406;2022-12-18T11:18:28;2.60;99.90
13344;DHT22;6741;48.964;9.406;2022-12-18T11:20:59;3.00;99.90
13344;DHT22;6741;48.964;9.406;2022-12-18T11:23:27;2.80;99.90
13344;DHT22;6741;48.964;9.406;2022-12-18T11:25:57;3.50;99.90
13344;DHT22;6741;48.964;9.406;2022-12-18T11:28:27;3.40;99.90
13344;DHT22;6741;48.964;9.406;2022-12-18T11:31:17;3.60;99.90
13344;DHT22;6741;48.964;9.406;2022-12-18T11:33:46;2.70;99.90
13344;DHT22;6741;48.964;9.406;2022-12-18T11:36:17;3.00;99.90
13344;DHT22;6741;48.964;9.406;2022-12-18T11:38:46;3.80;99.90
13344;DHT22;6741;48.964;9.406;2022-12-18T11:41:21;4.00;99.90
13344;DHT22;6741;48.964;9.406;2022-12-18T11:44:11;4.70;99.90
13344;DHT22;6741;48.964;9.406;2022-12-18T11:46:45;5.50;99.90
13344;DHT22;6741;48.964;9.406;2022-12-18T11:49:17;5.90;99.90
13344;DHT22;6741;48.964;9.406;2022-12-18T11:51:51;5.90;99.90
13344;DHT22;6741;48.964;9.406;2022-12-18T11:54:22;5.20;99.90
13344;DHT22;6741;48.964;9.406;2022-12-18T11:56:52;5.10;99.90
13344;DHT22;6741;48.964;9.406;2022-12-18T11:59:26;4.70;99.90
13344;DHT22;6741;48.964;9.406;2022-12-18T12:01:58;4.70;99.90
13344;DHT22;6741;48.964;9.406;2022-12-18T12:04:53;4.40;99.90
13344;DHT22;6741;48.964;9.406;2022-12-18T12:07:36;4.30;99.90
13344;DHT22;6741;48.964;9.406;2022-12-18T12:10:16;5.20;99.90
13344;DHT22;6741;48.964;9.406;2022-12-18T12:13:00;5.40;99.90
13344;DHT22;6741;48.964;9.406;2022-12-18T12:15:37;6.40;99.90
13344;DHT22;6741;48.964;9.406;2022-12-18T12:18:13;6.70;99.90
13344;DHT22;6741;48.964;9.406;2022-12-18T12:20:49;7.30;99.90
13344;DHT22;6741;48.964;9.406;2022-12-18T12:23:28;7.70;99.90
13344;DHT22;6741;48.964;9.406;2022-12-18T12:26:01;7.70;99.90
13344;DHT22;6741;48.964;9.406;2022-12-18T12:28:57;7.20;99.90
13344;DHT22;6741;48.964;9.406;2022-12-18T12:31:39;6.50;99.90
13344;DHT22;6741;48.964;9.406;2022-12-18T12:34:16;6.60;99.90
13344;DHT22;6741;48.964;9.406;2022-12-18T12:36:57;6.80;99.90
13344;DHT22;6741;48.964;9.406;2022-12-18T12:39:33;5.70;99.90
13344;DHT22;6741;48.964;9.406;2022-12-18T12:42:02;4.90;99.90
13344;DHT22;6741;48.964;9.406;2022-12-18T12:44:51;4.40;99.90
13344;DHT22;6741;48.964;9.406;2022-12-18T12:47:25;3.80;99.90
13344;DHT22;6741;48.964;9.406;2022-12-18T12:49:54;3.70;99.90
13344;DHT22;6741;48.964;9.406;2022-12-18T12:52:28;3.80;99.90
13344;DHT22;6741;48.964;9.406;2022-12-18T12:54:59;4.40;99.90
13344;DHT22;6741;48.964;9.406;2022-12-18T12:57:33;4.50;99.90
13344;DHT22;6741;48.964;9.406;2022-12-18T13:00:04;4.90;99.90
13344;DHT22;6741;48.964;9.406;2022-12-18T13:02:36;5.10;99.90
13344;DHT22;6741;48.964;9.406;2022-12-18T13:05:12;4.40;99.90
13344;DHT22;6741;48.964;9.406;2022-12-18T13:07:50;4.10;99.90
13344;DHT22;6741;48.964;9.406;2022-12-18T13:10:37;4.00;99.90
13344;DHT22;6741;48.964;9.406;2022-12-18T13:13:07;4.10;99.90
13344;DHT22;6741;48.964;9.406;2022-12-18T13:15:38;4.20;99.90
13344;DHT22;6741;48.964;9.406;2022-12-18T13:18:21;3.80;99.90
13344;DHT22;6741;48.964;9.406;2022-12-18T13:20:50;4.00;99.90
13344;DHT22;6741;48.964;9.406;2022-12-18T13:23:34;4.00;99.90
13344;DHT22;6741;48.964;9.406;2022-12-18T13:26:33;4.10;99.90
13344;DHT22;6741;48.964;9.406;2022-12-18T13:29:00;3.90;99.90
13344;DHT22;6741;48.964;9.406;2022-12-18T13:31:59;4.00;99.90
13344;DHT22;6741;48.964;9.406;2022-12-18T13:34:28;3.40;99.90
13344;DHT22;6741;48.964;9.406;2022-12-18T13:36:57;3.00;99.90
13344;DHT22;6741;48.964;9.406;2022-12-18T13:39:43;2.60;99.90
13344;DHT22;6741;48.964;9.406;2022-12-18T13:42:38;2.70;99.90
13344;DHT22;6741;48.964;9.406;2022-12-18T13:45:44;2.50;99.90
13344;DHT22;6741;48.964;9.406;2022-12-18T13:48:20;2.40;99.90
13344;DHT22;6741;48.964;9.406;2022-12-18T13:50:50;2.30;99.90
13344;DHT22;6741;48.964;9.406;2022-12-18T13:53:21;2.10;99.90
13344;DHT22;6741;48.964;9.406;2022-12-18T13:55:52;2.00;99.90
13344;DHT22;6741;48.964;9.406;2022-12-18T13:58:20;2.00;99.90
13344;DHT22;6741;48.964;9.406;2022-12-18T14:00:47;1.80;99.90
13344;DHT22;6741;48.964;9.406;2022-12-18T14:03:22;1.50;99.90
13344;DHT22;6741;48.964;9.406;2022-12-18T14:05:55;1.40;99.90
13344;DHT22;6741;48.964;9.406;2022-12-18T14:08:23;1.20;99.90
13344;DHT22;6741;48.964;9.406;2022-12-18T14:10:51;1.20;99.90
13344;DHT22;6741;48.964;9.406;2022-12-18T14:13:24;1.30;99.90
13344;DHT22;6741;48.964;9.406;2022-12-18T14:15:53;1.10;99.90
13344;DHT22;6741;48.964;9.406;2022-12-18T14:18:23;0.70;99.90
13344;DHT22;6741;48.964;9.406;2022-12-18T14:20:52;0.90;99.90
13344;DHT22;6741;48.964;9.406;2022-12-18T14:23:31;0.80;99.90
13344;DHT22;6741;48.964;9.406;2022-12-18T14:25:59;0.60;99.90
13344;DHT22;6741;48.964;9.406;2022-12-18T14:28:27;0.50;99.90
13344;DHT22;6741;48.964;9.406;2022-12-18T14:30:54;0.30;99.90
13344;DHT22;6741;48.964;9.406;2022-12-18T14:33:23;0.20;99.90
13344;DHT22;6741;48.964;9.406;2022-12-18T14:35:59;0.20;99.90
13344;DHT22;6741;48.964;9.406;2022-12-18T14:38:29;-0.10;99.90
13344;DHT22;6741;48.964;9.406;2022-12-18T14:40:58;-0.30;99.90
13344;DHT22;6741;48.964;9.406;2022-12-18T14:43:28;-0.60;99.90
13344;DHT22;6741;48.964;9.406;2022-12-18T14:45:56;-0.90;99.90
13344;DHT22;6741;48.964;9.406;2022-12-18T14:48:35;-1.10;99.90
13344;DHT22;6741;48.964;9.406;2022-12-18T14:51:05;-1.40;99.90
13344;DHT22;6741;48.964;9.406;2022-12-18T14:53:35;-1.50;1.00
13344;DHT22;6741;48.964;9.406;2022-12-18T14:56:04;-1.50;1.00
13344;DHT22;6741;48.964;9.406;2022-12-18T14:58:46;-1.60;59.00
13344;DHT22;6741;48.964;9.406;2022-12-18T15:01:19;-1.70;99.90
13344;DHT22;6741;48.964;9.406;2022-12-18T15:03:47;-1.90;99.90
13344;DHT22;6741;48.964;9.406;2022-12-18T15:06:21;-2.10;99.90
13344;DHT22;6741;48.964;9.406;2022-12-18T15:08:51;-2.30;99.90
13344;DHT22;6741;48.964;9.406;2022-12-18T15:11:32;-2.40;99.90
13344;DHT22;6741;48.964;9.406;2022-12-18T15:14:24;-2.50;99.90
13344;DHT22;6741;48.964;9.406;2022-12-18T15:16:52;-2.70;99.90
13344;DHT22;6741;48.964;9.406;2022-12-18T15:19:21;-2.70;99.90
13344;DHT22;6741;48.964;9.406;2022-12-18T15:21:49;-2.70;99.90
13344;DHT22;6741;48.964;9.406;2022-12-18T15:24:27;-2.80;99.90
13344;DHT22;6741;48.964;9.406;2022-12-18T15:26:54;-2.80;99.90
13344;DHT22;6741;48.964;9.406;2022-12-18T15:29:24;-2.80;99.90
13344;DHT22;6741;48.964;9.406;2022-12-18T15:32:00;-2.80;99.90
13344;DHT22;6741;48.964;9.406;2022-12-18T15:34:28;-2.90;99.90
13344;DHT22;6741;48.964;9.406;2022-12-18T15:36:55;-3.00;99.90
13344;DHT22;6741;48.964;9.406;2022-12-18T15:39:22;-3.20;99.90
13344;DHT22;6741;48.964;9.406;2022-12-18T15:41:50;-3.40;99.90
13344;DHT22;6741;48.964;9.406;2022-12-18T15:44:36;-3.40;99.90
13344;DHT22;6741;48.964;9.406;2022-12-18T15:47:04;-3.60;99.90
13344;DHT22;6741;48.964;9.406;2022-12-18T15:49:34;-3.70;99.90
13344;DHT22;6741;48.964;9.406;2022-12-18T15:52:01;-3.70;99.90
13344;DHT22;6741;48.964;9.406;2022-12-18T15:54:31;-3.70;99.90
13344;DHT22;6741;48.964;9.406;2022-12-18T15:57:16;-3.80;99.90
13344;DHT22;6741;48.964;9.406;2022-12-18T15:59:54;-3.90;99.90
13344;DHT22;6741;48.964;9.406;2022-12-18T16:02:23;-3.90;99.90
13344;DHT22;6741;48.964;9.406;2022-12-18T16:04:51;-3.90;99.90
13344;DHT22;6741;48.964;9.406;2022-12-18T16:07:19;-3.90;99.90
13344;DHT22;6741;48.964;9.406;2022-12-18T16:09:47;-3.80;99.90
13344;DHT22;6741;48.964;9.406;2022-12-18T16:12:17;-3.90;99.90
13344;DHT22;6741;48.964;9.406;2022-12-18T16:14:44;-3.90;99.90